sensor_id;sensor_type;location;lat;lon;timestamp;P1;durP1;ratioP1;P2;durP2;ratioP2
20034;SDS011;10178;48.034;9.800;2023-05-23T00:01:02;7.68;;;6.93;;
20034;SDS011;10178;48.034;9.800;2023-05-23T00:03:30;8.30;;;7.50;;
20034;SDS011;10178;48.034;9.800;2023-05-23T00:05:57;15.50;;;11.60;;
20034;SDS011;10178;48.034;9.800;2023-05-23T00:08:23;9.05;;;8.15;;
20034;SDS011;10178;48.034;9.800;2023-05-23T00:10:49;11.88;;;9.85;;
20034;SDS011;10178;48.034;9.800;2023-05-23T00:13:14;9.98;;;7.65;;
20034;SDS011;10178;48.034;9.800;2023-05-23T00:15:40;13.45;;;11.25;;
20034;SDS011;10178;48.034;9.800;2023-05-23T00:18:06;8.20;;;7.40;;
20034;SDS011;10178;48.034;9.800;2023-05-23T00:20:35;8.52;;;7.65;;
20034;SDS011;10178;48.034;9.800;2023-05-23T00:23:01;11.18;;;9.73;;
20034;SDS011;10178;48.034;9.800;2023-05-23T00:25:27;9.15;;;8.13;;
20034;SDS011;10178;48.034;9.800;2023-05-23T00:27:58;8.75;;;7.95;;
20034;SDS011;10178;48.034;9.800;2023-05-23T00:30:24;8.02;;;7.22;;
20034;SDS011;10178;48.034;9.800;2023-05-23T00:32:51;7.85;;;7.10;;
20034;SDS011;10178;48.034;9.800;2023-05-23T00:35:18;8.70;;;7.90;;
20034;SDS011;10178;48.034;9.800;2023-05-23T00:37:44;8.18;;;7.43;;
20034;SDS011;10178;48.034;9.800;2023-05-23T00:40:11;8.05;;;7.25;;
20034;SDS011;10178;48.034;9.800;2023-05-23T00:42:36;8.68;;;7.55;;
20034;SDS011;10178;48.034;9.800;2023-05-23T00:45:02;10.40;;;7.82;;
20034;SDS011;10178;48.034;9.800;2023-05-23T00:47:29;8.32;;;7.40;;
20034;SDS011;10178;48.034;9.800;2023-05-23T00:49:55;14.70;;;10.73;;
20034;SDS011;10178;48.034;9.800;2023-05-23T00:52:21;8.18;;;7.43;;
20034;SDS011;10178;48.034;9.800;2023-05-23T00:54:47;11.25;;;10.05;;
20034;SDS011;10178;48.034;9.800;2023-05-23T00:57:13;13.18;;;11.77;;
20034;SDS011;10178;48.034;9.800;2023-05-23T00:59:38;14.18;;;12.27;;
20034;SDS011;10178;48.034;9.800;2023-05-23T01:02:04;8.85;;;7.95;;
20034;SDS011;10178;48.034;9.800;2023-05-23T01:04:30;8.02;;;7.22;;
20034;SDS011;10178;48.034;9.800;2023-05-23T01:06:58;8.40;;;7.40;;
20034;SDS011;10178;48.034;9.800;2023-05-23T01:09:25;8.63;;;7.82;;
20034;SDS011;10178;48.034;9.800;2023-05-23T01:11:57;9.57;;;8.23;;
20034;SDS011;10178;48.034;9.800;2023-05-23T01:14:53;8.38;;;7.57;;
20034;SDS011;10178;48.034;9.800;2023-05-23T01:20:23;7.97;;;7.18;;
20034;SDS011;10178;48.034;9.800;2023-05-23T01:28:17;8.95;;;8.15;;
20034;SDS011;10178;48.034;9.800;2023-05-23T01:30:45;12.38;;;9.48;;
20034;SDS011;10178;48.034;9.800;2023-05-23T01:33:15;8.18;;;7.18;;
20034;SDS011;10178;48.034;9.800;2023-05-23T01:35:44;8.50;;;7.65;;
20034;SDS011;10178;48.034;9.800;2023-05-23T01:38:10;7.88;;;7.07;;
20034;SDS011;10178;48.034;9.800;2023-05-23T01:40:36;8.40;;;7.60;;
20034;SDS011;10178;48.034;9.800;2023-05-23T01:43:02;8.38;;;7.57;;
20034;SDS011;10178;48.034;9.800;2023-05-23T01:45:28;11.68;;;10.13;;
20034;SDS011;10178;48.034;9.800;2023-05-23T01:47:55;8.75;;;7.85;;
20034;SDS011;10178;48.034;9.800;2023-05-23T01:50:21;13.05;;;11.60;;
20034;SDS011;10178;48.034;9.800;2023-05-23T01:52:48;8.55;;;7.70;;
20034;SDS011;10178;48.034;9.800;2023-05-23T01:55:15;9.15;;;8.25;;
20034;SDS011;10178;48.034;9.800;2023-05-23T01:57:46;10.80;;;8.27;;
20034;SDS011;10178;48.034;9.800;2023-05-23T02:00:15;8.95;;;8.05;;
20034;SDS011;10178;48.034;9.800;2023-05-23T02:02:41;8.75;;;7.85;;
20034;SDS011;10178;48.034;9.800;2023-05-23T02:05:08;8.57;;;7.43;;
20034;SDS011;10178;48.034;9.800;2023-05-23T02:07:35;8.30;;;7.50;;
20034;SDS011;10178;48.034;9.800;2023-05-23T02:10:02;8.15;;;7.35;;
20034;SDS011;10178;48.034;9.800;2023-05-23T02:12:28;8.82;;;6.95;;
20034;SDS011;10178;48.034;9.800;2023-05-23T02:14:54;8.35;;;7.55;;
20034;SDS011;10178;48.034;9.800;2023-05-23T02:17:19;8.75;;;7.85;;
20034;SDS011;10178;48.034;9.800;2023-05-23T02:19:46;7.95;;;7.25;;
20034;SDS011;10178;48.034;9.800;2023-05-23T02:22:12;8.60;;;7.43;;
20034;SDS011;10178;48.034;9.800;2023-05-23T02:24:38;7.85;;;7.05;;
20034;SDS011;10178;48.034;9.800;2023-05-23T02:27:04;7.93;;;7.18;;
20034;SDS011;10178;48.034;9.800;2023-05-23T02:29:29;8.73;;;7.90;;
20034;SDS011;10178;48.034;9.800;2023-05-23T02:31:55;8.05;;;7.25;;
20034;SDS011;10178;48.034;9.800;2023-05-23T02:34:21;9.00;;;7.72;;
20034;SDS011;10178;48.034;9.800;2023-05-23T02:36:46;12.23;;;10.77;;
20034;SDS011;10178;48.034;9.800;2023-05-23T02:39:12;9.02;;;7.78;;
20034;SDS011;10178;48.034;9.800;2023-05-23T02:41:37;7.65;;;6.90;;
20034;SDS011;10178;48.034;9.800;2023-05-23T02:44:03;8.07;;;7.28;;
20034;SDS011;10178;48.034;9.800;2023-05-23T02:46:28;9.52;;;7.25;;
20034;SDS011;10178;48.034;9.800;2023-05-23T02:48:54;8.15;;;7.35;;
20034;SDS011;10178;48.034;9.800;2023-05-23T02:51:20;8.48;;;7.68;;
20034;SDS011;10178;48.034;9.800;2023-05-23T02:53:45;8.90;;;8.00;;
20034;SDS011;10178;48.034;9.800;2023-05-23T02:56:11;12.32;;;9.02;;
20034;SDS011;10178;48.034;9.800;2023-05-23T02:58:37;8.15;;;7.15;;
20034;SDS011;10178;48.034;9.800;2023-05-23T03:01:03;10.43;;;7.22;;
20034;SDS011;10178;48.034;9.800;2023-05-23T03:03:30;8.38;;;7.57;;
20034;SDS011;10178;48.034;9.800;2023-05-23T03:06:02;8.23;;;7.50;;
20034;SDS011;10178;48.034;9.800;2023-05-23T03:08:31;8.68;;;7.78;;
20034;SDS011;10178;48.034;9.800;2023-05-23T03:10:57;9.02;;;7.25;;
20034;SDS011;10178;48.034;9.800;2023-05-23T03:13:22;8.68;;;7.72;;
20034;SDS011;10178;48.034;9.800;2023-05-23T03:15:48;8.43;;;7.63;;
20034;SDS011;10178;48.034;9.800;2023-05-23T03:18:13;8.45;;;7.63;;
20034;SDS011;10178;48.034;9.800;2023-05-23T03:20:40;8.85;;;8.05;;
20034;SDS011;10178;48.034;9.800;2023-05-23T03:23:06;8.13;;;7.30;;
20034;SDS011;10178;48.034;9.800;2023-05-23T03:25:31;7.70;;;6.88;;
20034;SDS011;10178;48.034;9.800;2023-05-23T03:27:57;8.45;;;7.65;;
20034;SDS011;10178;48.034;9.800;2023-05-23T03:30:23;8.55;;;7.15;;
20034;SDS011;10178;48.034;9.800;2023-05-23T03:32:48;7.70;;;7.00;;
20034;SDS011;10178;48.034;9.800;2023-05-23T03:35:14;8.40;;;7.50;;
20034;SDS011;10178;48.034;9.800;2023-05-23T03:37:39;7.53;;;6.82;;
20034;SDS011;10178;48.034;9.800;2023-05-23T03:40:05;7.97;;;7.18;;
20034;SDS011;10178;48.034;9.800;2023-05-23T03:42:32;8.27;;;7.47;;
20034;SDS011;10178;48.034;9.800;2023-05-23T03:44:57;8.13;;;7.32;;
20034;SDS011;10178;48.034;9.800;2023-05-23T03:47:23;9.05;;;7.50;;
20034;SDS011;10178;48.034;9.800;2023-05-23T03:49:49;8.45;;;7.30;;
20034;SDS011;10178;48.034;9.800;2023-05-23T03:52:15;8.68;;;7.05;;
20034;SDS011;10178;48.034;9.800;2023-05-23T03:54:41;9.30;;;8.35;;
20034;SDS011;10178;48.034;9.800;2023-05-23T03:57:06;17.02;;;13.52;;
20034;SDS011;10178;48.034;9.800;2023-05-23T03:59:33;17.63;;;12.35;;
20034;SDS011;10178;48.034;9.800;2023-05-23T04:01:59;13.85;;;10.95;;
20034;SDS011;10178;48.034;9.800;2023-05-23T04:04:25;10.85;;;9.35;;
20034;SDS011;10178;48.034;9.800;2023-05-23T04:06:51;10.05;;;8.35;;
20034;SDS011;10178;48.034;9.800;2023-05-23T04:09:17;9.70;;;8.70;;
20034;SDS011;10178;48.034;9.800;2023-05-23T04:11:43;10.15;;;8.88;;
20034;SDS011;10178;48.034;9.800;2023-05-23T04:14:08;14.25;;;10.32;;
20034;SDS011;10178;48.034;9.800;2023-05-23T04:16:35;18.20;;;11.65;;
20034;SDS011;10178;48.034;9.800;2023-05-23T04:19:02;9.70;;;8.70;;
20034;SDS011;10178;48.034;9.800;2023-05-23T04:21:28;8.82;;;8.00;;
20034;SDS011;10178;48.034;9.800;2023-05-23T04:23:54;9.10;;;8.05;;
20034;SDS011;10178;48.034;9.800;2023-05-23T04:26:20;9.38;;;8.40;;
20034;SDS011;10178;48.034;9.800;2023-05-23T04:28:46;9.15;;;7.93;;
20034;SDS011;10178;48.034;9.800;2023-05-23T04:31:12;8.63;;;7.65;;
20034;SDS011;10178;48.034;9.800;2023-05-23T04:33:38;11.60;;;7.65;;
20034;SDS011;10178;48.034;9.800;2023-05-23T04:36:04;8.88;;;7.80;;
20034;SDS011;10178;48.034;9.800;2023-05-23T04:38:33;9.00;;;8.10;;
20034;SDS011;10178;48.034;9.800;2023-05-23T04:40:59;9.52;;;8.52;;
20034;SDS011;10178;48.034;9.800;2023-05-23T04:43:24;10.68;;;7.93;;
20034;SDS011;10178;48.034;9.800;2023-05-23T04:45:53;9.88;;;8.85;;
20034;SDS011;10178;48.034;9.800;2023-05-23T04:48:19;10.80;;;8.10;;
20034;SDS011;10178;48.034;9.800;2023-05-23T04:50:47;8.60;;;7.72;;
20034;SDS011;10178;48.034;9.800;2023-05-23T04:53:15;11.38;;;8.38;;
20034;SDS011;10178;48.034;9.800;2023-05-23T04:55:40;8.60;;;7.72;;
20034;SDS011;10178;48.034;9.800;2023-05-23T04:58:06;14.98;;;13.27;;
20034;SDS011;10178;48.034;9.800;2023-05-23T05:00:32;19.27;;;13.63;;
20034;SDS011;10178;48.034;9.800;2023-05-23T05:02:57;18.58;;;15.52;;
20034;SDS011;10178;48.034;9.800;2023-05-23T05:05:23;16.75;;;14.73;;
20034;SDS011;10178;48.034;9.800;2023-05-23T05:07:48;21.00;;;15.73;;
20034;SDS011;10178;48.034;9.800;2023-05-23T05:10:14;9.95;;;8.95;;
20034;SDS011;10178;48.034;9.800;2023-05-23T05:12:43;11.38;;;9.80;;
20034;SDS011;10178;48.034;9.800;2023-05-23T05:15:15;8.80;;;7.90;;
20034;SDS011;10178;48.034;9.800;2023-05-23T05:17:41;21.13;;;15.25;;
20034;SDS011;10178;48.034;9.800;2023-05-23T05:20:07;18.55;;;15.43;;
20034;SDS011;10178;48.034;9.800;2023-05-23T05:22:35;14.50;;;11.15;;
20034;SDS011;10178;48.034;9.800;2023-05-23T05:25:01;21.60;;;16.25;;
20034;SDS011;10178;48.034;9.800;2023-05-23T05:27:27;22.27;;;17.92;;
20034;SDS011;10178;48.034;9.800;2023-05-23T05:29:53;14.13;;;12.15;;
20034;SDS011;10178;48.034;9.800;2023-05-23T05:32:22;12.70;;;11.38;;
20034;SDS011;10178;48.034;9.800;2023-05-23T05:34:48;10.40;;;9.32;;
20034;SDS011;10178;48.034;9.800;2023-05-23T05:37:14;16.35;;;12.95;;
20034;SDS011;10178;48.034;9.800;2023-05-23T05:39:40;10.23;;;9.20;;
20034;SDS011;10178;48.034;9.800;2023-05-23T05:42:06;10.23;;;8.73;;
20034;SDS011;10178;48.034;9.800;2023-05-23T05:44:32;11.55;;;8.85;;
20034;SDS011;10178;48.034;9.800;2023-05-23T05:46:57;9.80;;;8.63;;
20034;SDS011;10178;48.034;9.800;2023-05-23T05:49:23;9.90;;;8.90;;
20034;SDS011;10178;48.034;9.800;2023-05-23T05:51:48;19.83;;;15.18;;
20034;SDS011;10178;48.034;9.800;2023-05-23T05:54:14;10.18;;;8.98;;
20034;SDS011;10178;48.034;9.800;2023-05-23T05:56:40;12.15;;;10.02;;
20034;SDS011;10178;48.034;9.800;2023-05-23T05:59:06;30.83;;;20.38;;
20034;SDS011;10178;48.034;9.800;2023-05-23T06:01:32;29.40;;;19.58;;
20034;SDS011;10178;48.034;9.800;2023-05-23T06:03:58;23.30;;;16.15;;
20034;SDS011;10178;48.034;9.800;2023-05-23T06:06:24;32.70;;;22.95;;
20034;SDS011;10178;48.034;9.800;2023-05-23T06:08:50;37.85;;;25.20;;
20034;SDS011;10178;48.034;9.800;2023-05-23T06:11:16;43.75;;;26.15;;
20034;SDS011;10178;48.034;9.800;2023-05-23T06:13:41;42.08;;;20.02;;
20034;SDS011;10178;48.034;9.800;2023-05-23T06:16:07;53.60;;;28.48;;
20034;SDS011;10178;48.034;9.800;2023-05-23T06:18:33;49.05;;;29.90;;
20034;SDS011;10178;48.034;9.800;2023-05-23T06:20:58;19.30;;;12.65;;
20034;SDS011;10178;48.034;9.800;2023-05-23T06:23:24;50.65;;;30.45;;
20034;SDS011;10178;48.034;9.800;2023-05-23T06:25:50;22.63;;;17.25;;
20034;SDS011;10178;48.034;9.800;2023-05-23T06:28:15;12.40;;;10.77;;
20034;SDS011;10178;48.034;9.800;2023-05-23T06:30:41;15.15;;;11.27;;
20034;SDS011;10178;48.034;9.800;2023-05-23T06:33:06;13.88;;;11.07;;
20034;SDS011;10178;48.034;9.800;2023-05-23T06:35:32;13.27;;;10.02;;
20034;SDS011;10178;48.034;9.800;2023-05-23T06:37:58;16.13;;;10.90;;
20034;SDS011;10178;48.034;9.800;2023-05-23T06:40:23;40.22;;;26.35;;
20034;SDS011;10178;48.034;9.800;2023-05-23T06:42:49;51.30;;;29.88;;
20034;SDS011;10178;48.034;9.800;2023-05-23T06:45:15;19.58;;;12.93;;
20034;SDS011;10178;48.034;9.800;2023-05-23T06:47:41;14.18;;;11.63;;
20034;SDS011;10178;48.034;9.800;2023-05-23T06:50:09;12.90;;;11.25;;
20034;SDS011;10178;48.034;9.800;2023-05-23T06:52:35;14.82;;;11.70;;
20034;SDS011;10178;48.034;9.800;2023-05-23T06:55:01;14.85;;;12.07;;
20034;SDS011;10178;48.034;9.800;2023-05-23T06:57:26;15.73;;;11.88;;
20034;SDS011;10178;48.034;9.800;2023-05-23T06:59:52;16.10;;;12.40;;
20034;SDS011;10178;48.034;9.800;2023-05-23T07:02:17;17.38;;;12.18;;
20034;SDS011;10178;48.034;9.800;2023-05-23T07:04:43;17.95;;;13.00;;
20034;SDS011;10178;48.034;9.800;2023-05-23T07:07:08;16.58;;;13.40;;
20034;SDS011;10178;48.034;9.800;2023-05-23T07:09:34;17.25;;;12.95;;
20034;SDS011;10178;48.034;9.800;2023-05-23T07:12:00;19.70;;;13.38;;
20034;SDS011;10178;48.034;9.800;2023-05-23T07:14:25;19.98;;;14.27;;
20034;SDS011;10178;48.034;9.800;2023-05-23T07:16:51;20.52;;;14.63;;
20034;SDS011;10178;48.034;9.800;2023-05-23T07:19:17;22.83;;;15.02;;
20034;SDS011;10178;48.034;9.800;2023-05-23T07:21:42;17.75;;;14.52;;
20034;SDS011;10178;48.034;9.800;2023-05-23T07:24:08;19.17;;;15.20;;
20034;SDS011;10178;48.034;9.800;2023-05-23T07:26:33;20.77;;;14.95;;
20034;SDS011;10178;48.034;9.800;2023-05-23T07:28:59;23.02;;;16.25;;
20034;SDS011;10178;48.034;9.800;2023-05-23T07:31:25;22.85;;;16.48;;
20034;SDS011;10178;48.034;9.800;2023-05-23T07:33:50;23.55;;;17.10;;
20034;SDS011;10178;48.034;9.800;2023-05-23T07:36:16;30.92;;;20.58;;
20034;SDS011;10178;48.034;9.800;2023-05-23T07:38:41;22.13;;;17.00;;
20034;SDS011;10178;48.034;9.800;2023-05-23T07:41:07;50.33;;;34.10;;
20034;SDS011;10178;48.034;9.800;2023-05-23T07:43:33;24.98;;;18.40;;
20034;SDS011;10178;48.034;9.800;2023-05-23T07:45:58;24.25;;;17.83;;
20034;SDS011;10178;48.034;9.800;2023-05-23T07:48:24;23.35;;;17.95;;
20034;SDS011;10178;48.034;9.800;2023-05-23T07:50:51;25.30;;;18.60;;
20034;SDS011;10178;48.034;9.800;2023-05-23T07:53:19;28.23;;;19.45;;
20034;SDS011;10178;48.034;9.800;2023-05-23T07:55:46;50.00;;;32.65;;
20034;SDS011;10178;48.034;9.800;2023-05-23T07:58:11;28.20;;;19.23;;
20034;SDS011;10178;48.034;9.800;2023-05-23T08:00:37;24.30;;;18.45;;
20034;SDS011;10178;48.034;9.800;2023-05-23T08:03:02;53.35;;;32.97;;
20034;SDS011;10178;48.034;9.800;2023-05-23T08:05:28;59.10;;;36.67;;
20034;SDS011;10178;48.034;9.800;2023-05-23T08:07:54;55.05;;;36.15;;
20034;SDS011;10178;48.034;9.800;2023-05-23T08:10:19;56.53;;;35.15;;
20034;SDS011;10178;48.034;9.800;2023-05-23T08:12:45;55.50;;;36.85;;
20034;SDS011;10178;48.034;9.800;2023-05-23T08:15:11;58.30;;;37.63;;
20034;SDS011;10178;48.034;9.800;2023-05-23T08:17:36;54.90;;;37.22;;
20034;SDS011;10178;48.034;9.800;2023-05-23T08:20:02;53.92;;;35.88;;
20034;SDS011;10178;48.034;9.800;2023-05-23T08:22:29;49.58;;;32.88;;
20034;SDS011;10178;48.034;9.800;2023-05-23T08:24:54;53.55;;;34.80;;
20034;SDS011;10178;48.034;9.800;2023-05-23T08:27:20;50.97;;;32.97;;
20034;SDS011;10178;48.034;9.800;2023-05-23T08:29:46;50.33;;;33.03;;
20034;SDS011;10178;48.034;9.800;2023-05-23T08:32:12;50.38;;;32.75;;
20034;SDS011;10178;48.034;9.800;2023-05-23T08:34:38;46.65;;;30.63;;
20034;SDS011;10178;48.034;9.800;2023-05-23T08:37:04;50.72;;;33.83;;
20034;SDS011;10178;48.034;9.800;2023-05-23T08:39:30;56.47;;;37.22;;
20034;SDS011;10178;48.034;9.800;2023-05-23T08:41:55;52.65;;;35.22;;
20034;SDS011;10178;48.034;9.800;2023-05-23T08:44:21;39.83;;;29.20;;
20034;SDS011;10178;48.034;9.800;2023-05-23T08:46:47;45.65;;;30.08;;
20034;SDS011;10178;48.034;9.800;2023-05-23T08:49:16;44.63;;;29.35;;
20034;SDS011;10178;48.034;9.800;2023-05-23T08:51:42;42.78;;;28.95;;
20034;SDS011;10178;48.034;9.800;2023-05-23T08:54:08;48.60;;;30.30;;
20034;SDS011;10178;48.034;9.800;2023-05-23T08:56:37;46.28;;;30.83;;
20034;SDS011;10178;48.034;9.800;2023-05-23T08:59:02;41.83;;;28.73;;
20034;SDS011;10178;48.034;9.800;2023-05-23T09:01:28;46.22;;;31.58;;
20034;SDS011;10178;48.034;9.800;2023-05-23T09:03:55;43.58;;;30.80;;
20034;SDS011;10178;48.034;9.800;2023-05-23T09:06:24;46.92;;;31.60;;
20034;SDS011;10178;48.034;9.800;2023-05-23T09:08:49;50.97;;;32.95;;
20034;SDS011;10178;48.034;9.800;2023-05-23T09:11:15;42.03;;;30.67;;
20034;SDS011;10178;48.034;9.800;2023-05-23T09:13:41;44.13;;;31.02;;
20034;SDS011;10178;48.034;9.800;2023-05-23T09:16:10;49.45;;;31.67;;
20034;SDS011;10178;48.034;9.800;2023-05-23T09:18:38;47.40;;;33.13;;
20034;SDS011;10178;48.034;9.800;2023-05-23T09:21:05;48.05;;;31.85;;
20034;SDS011;10178;48.034;9.800;2023-05-23T09:23:32;49.40;;;31.05;;
20034;SDS011;10178;48.034;9.800;2023-05-23T09:26:02;44.83;;;30.08;;
20034;SDS011;10178;48.034;9.800;2023-05-23T09:28:30;52.55;;;32.42;;
20034;SDS011;10178;48.034;9.800;2023-05-23T09:31:00;50.40;;;33.03;;
20034;SDS011;10178;48.034;9.800;2023-05-23T09:33:42;43.97;;;31.10;;
20034;SDS011;10178;48.034;9.800;2023-05-23T09:36:12;42.92;;;29.80;;
20034;SDS011;10178;48.034;9.800;2023-05-23T09:38:42;43.42;;;30.25;;
20034;SDS011;10178;48.034;9.800;2023-05-23T09:41:09;46.00;;;30.17;;
20034;SDS011;10178;48.034;9.800;2023-05-23T09:43:59;45.60;;;30.27;;
20034;SDS011;10178;48.034;9.800;2023-05-23T09:46:29;39.83;;;29.58;;
20034;SDS011;10178;48.034;9.800;2023-05-23T09:48:55;38.50;;;28.65;;
20034;SDS011;10178;48.034;9.800;2023-05-23T09:51:21;41.90;;;28.58;;
20034;SDS011;10178;48.034;9.800;2023-05-23T09:53:48;43.97;;;29.25;;
20034;SDS011;10178;48.034;9.800;2023-05-23T09:56:17;41.35;;;29.05;;
20034;SDS011;10178;48.034;9.800;2023-05-23T09:58:46;41.35;;;28.92;;
20034;SDS011;10178;48.034;9.800;2023-05-23T10:01:12;37.65;;;26.83;;
20034;SDS011;10178;48.034;9.800;2023-05-23T10:03:46;38.17;;;28.08;;
20034;SDS011;10178;48.034;9.800;2023-05-23T10:06:59;41.03;;;27.75;;
20034;SDS011;10178;48.034;9.800;2023-05-23T10:09:06;39.13;;;28.10;;
20034;SDS011;10178;48.034;9.800;2023-05-23T10:14:08;38.47;;;24.88;;
20034;SDS011;10178;48.034;9.800;2023-05-23T10:19:22;38.10;;;26.45;;
20034;SDS011;10178;48.034;9.800;2023-05-23T10:22:00;36.08;;;26.02;;
20034;SDS011;10178;48.034;9.800;2023-05-23T10:24:28;34.13;;;24.30;;
20034;SDS011;10178;48.034;9.800;2023-05-23T10:26:54;31.55;;;25.10;;
20034;SDS011;10178;48.034;9.800;2023-05-23T10:29:23;35.55;;;24.92;;
20034;SDS011;10178;48.034;9.800;2023-05-23T10:31:50;33.13;;;24.58;;
20034;SDS011;10178;48.034;9.800;2023-05-23T10:37:04;33.42;;;23.95;;
20034;SDS011;10178;48.034;9.800;2023-05-23T10:42:21;29.13;;;22.92;;
20034;SDS011;10178;48.034;9.800;2023-05-23T10:45:12;35.22;;;24.85;;
20034;SDS011;10178;48.034;9.800;2023-05-23T10:47:39;29.35;;;23.90;;
20034;SDS011;10178;48.034;9.800;2023-05-23T10:50:05;31.33;;;23.95;;
20034;SDS011;10178;48.034;9.800;2023-05-23T10:52:37;31.83;;;23.30;;
20034;SDS011;10178;48.034;9.800;2023-05-23T10:55:11;30.38;;;23.50;;
20034;SDS011;10178;48.034;9.800;2023-05-23T10:57:39;33.75;;;24.65;;
20034;SDS011;10178;48.034;9.800;2023-05-23T11:00:11;31.88;;;23.80;;
20034;SDS011;10178;48.034;9.800;2023-05-23T11:02:53;37.63;;;24.77;;
20034;SDS011;10178;48.034;9.800;2023-05-23T11:05:23;33.72;;;22.77;;
20034;SDS011;10178;48.034;9.800;2023-05-23T11:08:08;34.38;;;23.73;;
20034;SDS011;10178;48.034;9.800;2023-05-23T11:10:51;31.52;;;24.00;;
20034;SDS011;10178;48.034;9.800;2023-05-23T11:13:18;28.90;;;22.10;;
20034;SDS011;10178;48.034;9.800;2023-05-23T11:15:45;28.95;;;21.88;;
20034;SDS011;10178;48.034;9.800;2023-05-23T11:18:22;29.88;;;22.33;;
20034;SDS011;10178;48.034;9.800;2023-05-23T11:20:49;32.65;;;22.05;;
20034;SDS011;10178;48.034;9.800;2023-05-23T11:23:17;33.55;;;21.20;;
20034;SDS011;10178;48.034;9.800;2023-05-23T11:28:10;29.75;;;23.20;;
20034;SDS011;10178;48.034;9.800;2023-05-23T11:30:36;27.33;;;21.15;;
20034;SDS011;10178;48.034;9.800;2023-05-23T11:33:12;26.13;;;21.92;;
20034;SDS011;10178;48.034;9.800;2023-05-23T11:35:40;27.67;;;21.67;;
20034;SDS011;10178;48.034;9.800;2023-05-23T11:38:07;26.27;;;21.05;;
20034;SDS011;10178;48.034;9.800;2023-05-23T11:40:37;26.70;;;21.15;;
20034;SDS011;10178;48.034;9.800;2023-05-23T11:43:11;26.25;;;21.30;;
20034;SDS011;10178;48.034;9.800;2023-05-23T11:45:39;27.45;;;20.67;;
20034;SDS011;10178;48.034;9.800;2023-05-23T11:50:48;29.88;;;22.92;;
20034;SDS011;10178;48.034;9.800;2023-05-23T11:53:15;28.92;;;23.58;;
20034;SDS011;10178;48.034;9.800;2023-05-23T11:55:48;35.13;;;24.20;;
20034;SDS011;10178;48.034;9.800;2023-05-23T11:58:14;31.13;;;23.30;;
20034;SDS011;10178;48.034;9.800;2023-05-23T12:00:44;30.20;;;23.00;;
20034;SDS011;10178;48.034;9.800;2023-05-23T12:03:10;34.90;;;26.20;;
20034;SDS011;10178;48.034;9.800;2023-05-23T12:05:36;35.70;;;26.23;;
20034;SDS011;10178;48.034;9.800;2023-05-23T12:08:01;34.30;;;25.83;;
20034;SDS011;10178;48.034;9.800;2023-05-23T12:10:27;34.17;;;26.50;;
20034;SDS011;10178;48.034;9.800;2023-05-23T12:12:53;32.40;;;27.15;;
20034;SDS011;10178;48.034;9.800;2023-05-23T12:15:23;35.58;;;26.30;;
20034;SDS011;10178;48.034;9.800;2023-05-23T12:17:52;33.58;;;26.10;;
20034;SDS011;10178;48.034;9.800;2023-05-23T12:20:18;33.15;;;26.75;;
20034;SDS011;10178;48.034;9.800;2023-05-23T12:22:45;31.70;;;26.20;;
20034;SDS011;10178;48.034;9.800;2023-05-23T12:25:10;30.98;;;25.20;;
20034;SDS011;10178;48.034;9.800;2023-05-23T12:27:38;34.15;;;25.70;;
20034;SDS011;10178;48.034;9.800;2023-05-23T12:30:09;35.78;;;26.60;;
20034;SDS011;10178;48.034;9.800;2023-05-23T12:32:44;29.98;;;25.35;;
20034;SDS011;10178;48.034;9.800;2023-05-23T12:35:11;32.78;;;25.05;;
20034;SDS011;10178;48.034;9.800;2023-05-23T12:37:40;30.80;;;23.02;;
20034;SDS011;10178;48.034;9.800;2023-05-23T12:40:16;29.25;;;23.52;;
20034;SDS011;10178;48.034;9.800;2023-05-23T12:42:50;32.78;;;25.13;;
20034;SDS011;10178;48.034;9.800;2023-05-23T12:45:22;33.25;;;25.05;;
20034;SDS011;10178;48.034;9.800;2023-05-23T12:47:55;34.78;;;25.98;;
20034;SDS011;10178;48.034;9.800;2023-05-23T12:50:20;31.83;;;25.77;;
20034;SDS011;10178;48.034;9.800;2023-05-23T12:52:46;29.70;;;25.73;;
20034;SDS011;10178;48.034;9.800;2023-05-23T12:55:12;30.80;;;24.48;;
20034;SDS011;10178;48.034;9.800;2023-05-23T12:57:38;32.88;;;23.67;;
20034;SDS011;10178;48.034;9.800;2023-05-23T13:00:03;29.95;;;23.90;;
20034;SDS011;10178;48.034;9.800;2023-05-23T13:02:30;29.58;;;25.25;;
20034;SDS011;10178;48.034;9.800;2023-05-23T13:04:56;27.75;;;23.25;;
20034;SDS011;10178;48.034;9.800;2023-05-23T13:07:22;33.15;;;23.42;;
20034;SDS011;10178;48.034;9.800;2023-05-23T13:09:47;26.80;;;21.73;;
20034;SDS011;10178;48.034;9.800;2023-05-23T13:12:13;28.80;;;22.98;;
20034;SDS011;10178;48.034;9.800;2023-05-23T13:14:40;29.02;;;22.10;;
20034;SDS011;10178;48.034;9.800;2023-05-23T13:17:05;26.13;;;22.10;;
20034;SDS011;10178;48.034;9.800;2023-05-23T13:19:31;25.35;;;21.83;;
20034;SDS011;10178;48.034;9.800;2023-05-23T13:21:57;24.00;;;18.90;;
20034;SDS011;10178;48.034;9.800;2023-05-23T13:24:24;22.42;;;19.25;;
20034;SDS011;10178;48.034;9.800;2023-05-23T13:26:50;26.52;;;20.42;;
20034;SDS011;10178;48.034;9.800;2023-05-23T13:29:16;24.05;;;20.08;;
20034;SDS011;10178;48.034;9.800;2023-05-23T13:31:41;24.05;;;20.33;;
20034;SDS011;10178;48.034;9.800;2023-05-23T13:34:07;22.95;;;20.15;;
20034;SDS011;10178;48.034;9.800;2023-05-23T13:36:32;24.38;;;19.92;;
20034;SDS011;10178;48.034;9.800;2023-05-23T13:38:59;24.70;;;18.98;;
20034;SDS011;10178;48.034;9.800;2023-05-23T13:41:25;23.20;;;20.10;;
20034;SDS011;10178;48.034;9.800;2023-05-23T13:43:51;23.05;;;18.85;;
20034;SDS011;10178;48.034;9.800;2023-05-23T13:46:17;23.33;;;19.83;;
20034;SDS011;10178;48.034;9.800;2023-05-23T13:48:42;25.58;;;20.77;;
20034;SDS011;10178;48.034;9.800;2023-05-23T13:51:08;22.80;;;19.48;;
20034;SDS011;10178;48.034;9.800;2023-05-23T13:53:34;21.85;;;18.88;;
20034;SDS011;10178;48.034;9.800;2023-05-23T13:55:59;24.20;;;19.38;;
20034;SDS011;10178;48.034;9.800;2023-05-23T13:58:25;24.20;;;19.65;;
20034;SDS011;10178;48.034;9.800;2023-05-23T14:00:51;25.98;;;19.50;;
20034;SDS011;10178;48.034;9.800;2023-05-23T14:03:17;24.08;;;19.75;;
20034;SDS011;10178;48.034;9.800;2023-05-23T14:05:43;22.02;;;19.13;;
20034;SDS011;10178;48.034;9.800;2023-05-23T14:08:09;25.15;;;19.65;;
20034;SDS011;10178;48.034;9.800;2023-05-23T14:10:37;22.40;;;18.73;;
20034;SDS011;10178;48.034;9.800;2023-05-23T14:13:04;22.60;;;18.42;;
20034;SDS011;10178;48.034;9.800;2023-05-23T14:15:31;21.58;;;18.73;;
20034;SDS011;10178;48.034;9.800;2023-05-23T14:17:57;20.58;;;17.48;;
20034;SDS011;10178;48.034;9.800;2023-05-23T14:20:22;19.05;;;16.40;;
20034;SDS011;10178;48.034;9.800;2023-05-23T14:22:49;19.80;;;17.70;;
20034;SDS011;10178;48.034;9.800;2023-05-23T14:25:15;21.52;;;17.05;;
20034;SDS011;10178;48.034;9.800;2023-05-23T14:27:41;20.58;;;17.52;;
20034;SDS011;10178;48.034;9.800;2023-05-23T14:30:07;18.52;;;16.55;;
20034;SDS011;10178;48.034;9.800;2023-05-23T14:32:34;22.17;;;17.33;;
20034;SDS011;10178;48.034;9.800;2023-05-23T14:35:06;23.98;;;20.17;;
20034;SDS011;10178;48.034;9.800;2023-05-23T14:37:34;27.75;;;18.23;;
20034;SDS011;10178;48.034;9.800;2023-05-23T14:39:59;25.02;;;18.35;;
20034;SDS011;10178;48.034;9.800;2023-05-23T14:42:25;22.48;;;17.40;;
20034;SDS011;10178;48.034;9.800;2023-05-23T14:44:54;20.15;;;16.58;;
20034;SDS011;10178;48.034;9.800;2023-05-23T14:47:20;18.77;;;14.70;;
20034;SDS011;10178;48.034;9.800;2023-05-23T14:49:46;16.38;;;14.25;;
20034;SDS011;10178;48.034;9.800;2023-05-23T14:52:12;15.85;;;13.05;;